Terminal Aerodrome Forecast
Issued by NWS Bismarck, ND

Home | Current Version | Previous Version | Graphics & Text | Print | Product List | Glossary On
Versions: 1 2 3 4 5 6 7 8 9 10 11 12 13 14 15 16 17 18 19 20
000
FTUS43 KBIS 171700
TAFISN
TAF
KISN 171724Z 1718/1818 27012G18KT P6SM BKN070
     FM172000 25011KT P6SM VCTS SCT070CB
     FM180000 26008KT P6SM BKN080
     FM181100 29008KT P6SM SCT080=

USA.gov is the U.S. government's official web portal to all federal, state and local government web resources and services.